createdAt,value
2023-02-05T00:01:01.841Z,11.64
2023-02-05T00:05:53.459Z,11.65
2023-02-05T00:10:44.141Z,11.58
2023-02-05T00:15:36.705Z,11.59
2023-02-05T00:20:26.810Z,11.54
2023-02-05T00:25:20.823Z,11.57
2023-02-05T00:30:15.396Z,11.59
2023-02-05T00:35:10.351Z,11.57
2023-02-05T00:40:01.908Z,11.52
2023-02-05T00:44:53.263Z,11.51
2023-02-05T00:49:47.868Z,11.53
2023-02-05T00:54:41.742Z,11.50
2023-02-05T00:59:33.040Z,11.45
2023-02-05T01:04:27.166Z,11.43
2023-02-05T01:09:19.837Z,11.41
2023-02-05T01:14:12.378Z,11.39
2023-02-05T01:19:02.258Z,11.36
2023-02-05T01:23:52.031Z,11.38
2023-02-05T01:28:42.409Z,11.37
2023-02-05T01:33:36.135Z,11.44
2023-02-05T01:38:28.092Z,11.45
2023-02-05T01:43:21.748Z,11.45
2023-02-05T01:48:15.493Z,11.55
2023-02-05T01:53:14.803Z,11.56
2023-02-05T01:58:09.101Z,11.44
2023-02-05T02:03:00.460Z,11.45
2023-02-05T02:07:51.954Z,11.39
2023-02-05T02:12:49.609Z,11.39
2023-02-05T02:17:42.960Z,11.31
2023-02-05T02:22:59.184Z,11.42
2023-02-05T02:28:00.808Z,11.36
2023-02-05T02:33:01.571Z,11.34
2023-02-05T02:37:59.780Z,11.35
2023-02-05T02:42:58.779Z,11.30
2023-02-05T02:47:53.963Z,11.21
2023-02-05T02:52:50.361Z,11.10
2023-02-05T02:57:43.543Z,11.06
2023-02-05T03:02:40.805Z,11.07
2023-02-05T03:07:37.594Z,11.06
2023-02-05T03:12:29.164Z,11.08
2023-02-05T03:17:22.361Z,11.01
2023-02-05T03:22:15.639Z,11.11
2023-02-05T03:27:05.764Z,11.11
2023-02-05T03:32:14.167Z,11.11
2023-02-05T03:37:19.992Z,11.09
2023-02-05T03:42:23.720Z,11.11
2023-02-05T03:47:27.898Z,11.18
2023-02-05T03:52:27.510Z,11.19
2023-02-05T03:57:25.058Z,11.24
2023-02-05T04:02:16.777Z,11.27
2023-02-05T04:07:09.976Z,11.30
2023-02-05T04:12:05.691Z,11.30
2023-02-05T04:16:59.036Z,11.27
2023-02-05T04:21:53.975Z,11.25
2023-02-05T04:26:45.153Z,11.25
2023-02-05T04:31:40.913Z,11.25
2023-02-05T04:36:31.526Z,11.24
2023-02-05T04:41:22.496Z,11.16
2023-02-05T04:46:19.376Z,11.28
2023-02-05T04:51:15.749Z,11.30
2023-02-05T04:56:15.384Z,11.20
2023-02-05T05:01:06.709Z,11.19
2023-02-05T05:05:59.678Z,11.14
2023-02-05T05:10:53.972Z,11.05
2023-02-05T05:15:45.076Z,11.03
2023-02-05T05:20:40.762Z,11.03
2023-02-05T05:25:32.863Z,10.99
2023-02-05T05:30:28.437Z,10.90
2023-02-05T05:35:22.167Z,10.90
2023-02-05T05:40:28.639Z,10.81
2023-02-05T05:45:20.371Z,10.81
2023-02-05T05:50:16.318Z,10.76
2023-02-05T05:55:07.580Z,10.67
2023-02-05T06:05:05.215Z,10.40
2023-02-05T06:09:57.676Z,10.48
2023-02-05T06:14:51.957Z,10.36
2023-02-05T06:19:43.358Z,10.36
2023-02-05T06:24:34.831Z,10.31
2023-02-05T06:29:32.030Z,10.24
2023-02-05T06:34:24.483Z,10.25
2023-02-05T06:39:18.168Z,10.27
2023-02-05T06:44:09.880Z,10.23
2023-02-05T06:49:12.607Z,10.26
2023-02-05T06:54:03.107Z,10.18
2023-02-05T06:58:53.258Z,10.24
2023-02-05T07:03:43.176Z,10.19
2023-02-05T07:08:37.002Z,10.30
2023-02-05T07:13:29.269Z,10.19
2023-02-05T07:18:19.578Z,10.27
2023-02-05T07:23:16.756Z,10.26
2023-02-05T07:28:13.653Z,10.24
2023-02-05T07:33:07.711Z,10.29
2023-02-05T07:37:59.090Z,10.33
2023-02-05T07:42:50.164Z,10.37
2023-02-05T07:47:43.906Z,10.39
2023-02-05T07:52:35.423Z,10.40
2023-02-05T07:57:26.671Z,10.38
2023-02-05T08:02:19.254Z,10.51
2023-02-05T08:07:15.423Z,10.53
2023-02-05T08:12:06.399Z,10.45
2023-02-05T08:17:01.294Z,10.55
2023-02-05T08:22:01.895Z,10.57
2023-02-05T08:26:56.527Z,10.72
2023-02-05T08:31:46.671Z,10.86
2023-02-05T08:36:36.736Z,10.90
2023-02-05T08:41:29.708Z,10.88
2023-02-05T08:46:31.642Z,10.85
2023-02-05T08:51:30.304Z,10.87
2023-02-05T08:56:23.454Z,10.89
2023-02-05T09:01:17.268Z,10.99
2023-02-05T09:06:14.193Z,11.11
2023-02-05T09:11:07.726Z,11.06
2023-02-05T09:16:02.252Z,11.10
2023-02-05T09:20:55.915Z,11.10
2023-02-05T09:25:55.450Z,11.32
2023-02-05T09:30:48.055Z,11.39
2023-02-05T09:35:41.502Z,11.43
2023-02-05T09:40:41.849Z,11.37
2023-02-05T09:46:00.467Z,11.63
2023-02-05T09:50:51.428Z,11.75
2023-02-05T09:55:46.153Z,11.96
2023-02-05T10:00:48.786Z,11.73
2023-02-05T10:05:48.557Z,12.21
2023-02-05T10:10:45.058Z,12.11
2023-02-05T10:15:59.784Z,11.99
2023-02-05T10:21:08.376Z,12.03
2023-02-05T10:26:15.498Z,11.97
2023-02-05T10:31:22.521Z,12.01
2023-02-05T10:36:17.390Z,11.87
2023-02-05T10:41:22.247Z,11.82
2023-02-05T10:46:34.993Z,11.71
2023-02-05T10:51:37.452Z,11.86
2023-02-05T10:56:32.809Z,11.75
2023-02-05T11:01:25.794Z,11.81
2023-02-05T11:06:20.081Z,11.88
2023-02-05T11:11:23.984Z,11.87
2023-02-05T11:16:14.690Z,11.87
2023-02-05T11:21:09.324Z,12.05
2023-02-05T11:26:05.830Z,12.13
2023-02-05T11:30:58.506Z,12.30
2023-02-05T11:35:57.869Z,12.30
2023-02-05T11:40:57.049Z,12.30
2023-02-05T11:45:56.811Z,12.34
2023-02-05T11:50:47.860Z,12.31
2023-02-05T11:55:39.985Z,12.34
2023-02-05T12:00:32.983Z,12.39
2023-02-05T12:05:34.033Z,12.60
2023-02-05T12:10:38.252Z,12.66
2023-02-05T12:15:33.529Z,12.63
2023-02-05T12:20:33.568Z,12.64
2023-02-05T12:25:30.417Z,12.75
2023-02-05T12:30:41.548Z,12.83
2023-02-05T12:35:48.877Z,12.69
2023-02-05T12:41:07.243Z,12.70
2023-02-05T12:46:09.331Z,12.85
2023-02-05T12:51:17.207Z,12.87
2023-02-05T12:56:26.792Z,13.03
2023-02-05T13:01:23.030Z,13.04
2023-02-05T13:06:22.514Z,13.02
2023-02-05T13:11:27.318Z,12.83
2023-02-05T13:16:24.665Z,12.95
2023-02-05T13:21:34.060Z,13.11
2023-02-05T13:26:46.733Z,13.13
2023-02-05T13:31:48.375Z,12.87
2023-02-05T13:37:15.111Z,12.97
2023-02-05T13:42:43.986Z,13.06
2023-02-05T13:48:05.218Z,13.19
2023-02-05T13:53:39.671Z,12.98
2023-02-05T13:58:37.240Z,12.73
2023-02-05T14:04:05.099Z,12.63
2023-02-05T14:09:09.426Z,12.45
2023-02-05T14:14:43.970Z,12.63
2023-02-05T14:20:08.849Z,12.66
2023-02-05T14:25:05.915Z,12.66
2023-02-05T14:30:06.843Z,12.53
2023-02-05T14:35:08.100Z,12.50
2023-02-05T14:40:14.281Z,12.45
2023-02-05T14:45:21.160Z,12.52
2023-02-05T14:50:26.673Z,12.47
2023-02-05T14:55:33.980Z,12.47
2023-02-05T15:00:42.013Z,12.33
2023-02-05T15:05:39.533Z,12.32
2023-02-05T15:10:39.827Z,12.31
2023-02-05T15:15:36.145Z,12.30
2023-02-05T15:20:40.719Z,12.28
2023-02-05T15:25:42.312Z,12.26
2023-02-05T15:30:52.433Z,12.10
2023-02-05T15:35:50.133Z,11.97
2023-02-05T15:40:45.219Z,11.87
2023-02-05T15:45:40.086Z,11.69
2023-02-05T15:50:33.642Z,11.68
2023-02-05T15:55:31.196Z,11.60
2023-02-05T16:00:26.236Z,11.64
2023-02-05T16:05:23.869Z,11.63
2023-02-05T16:10:23.495Z,11.47
2023-02-05T16:15:20.308Z,11.44
2023-02-05T16:20:29.840Z,11.30
2023-02-05T16:25:39.051Z,11.16
2023-02-05T16:30:41.016Z,10.95
2023-02-05T16:35:40.017Z,10.89
2023-02-05T16:40:39.928Z,10.74
2023-02-05T16:45:38.429Z,10.65
2023-02-05T16:50:44.951Z,10.63
2023-02-05T16:55:43.881Z,10.50
2023-02-05T17:00:39.108Z,10.45
2023-02-05T17:05:35.079Z,10.35
2023-02-05T17:10:35.804Z,10.26
2023-02-05T17:15:46.636Z,11.11
2023-02-05T17:20:42.650Z,11.24
2023-02-05T17:25:33.084Z,11.24
2023-02-05T17:30:25.358Z,11.09
2023-02-05T17:35:19.303Z,11.01
2023-02-05T17:40:16.248Z,11.12
2023-02-05T17:45:09.436Z,11.05
2023-02-05T17:49:59.907Z,11.12
2023-02-05T17:54:53.823Z,11.14
2023-02-05T17:59:47.258Z,11.03
2023-02-05T18:04:40.265Z,10.97
2023-02-05T18:09:32.328Z,10.69
2023-02-05T18:14:25.750Z,10.60
2023-02-05T18:19:16.318Z,10.63
2023-02-05T18:24:06.665Z,10.58
2023-02-05T18:28:57.333Z,10.41
2023-02-05T18:33:58.493Z,10.59
2023-02-05T18:38:50.333Z,9.80
2023-02-05T18:43:41.855Z,9.75
2023-02-05T18:48:33.365Z,9.67
2023-02-05T18:53:31.725Z,9.65
2023-02-05T18:58:27.852Z,9.63
2023-02-05T19:03:19.325Z,9.61
2023-02-05T19:08:13.306Z,9.60
2023-02-05T19:13:05.891Z,9.41
2023-02-05T19:17:55.530Z,10.62
2023-02-05T19:22:45.510Z,10.53
2023-02-05T19:27:40.419Z,9.60
2023-02-05T19:32:34.737Z,9.50
2023-02-05T19:37:30.117Z,9.47
2023-02-05T19:42:22.763Z,9.38
2023-02-05T19:47:13.879Z,9.38
2023-02-05T19:52:10.602Z,9.32
2023-02-05T19:57:03.919Z,9.29
2023-02-05T20:01:59.563Z,9.17
2023-02-05T20:06:52.628Z,9.19
2023-02-05T20:11:49.573Z,9.12
2023-02-05T20:16:42.435Z,9.01
2023-02-05T20:21:37.697Z,8.98
2023-02-05T20:26:29.645Z,8.90
2023-02-05T20:31:41.627Z,8.76
2023-02-05T20:36:33.956Z,8.72
2023-02-05T20:41:26.639Z,8.71
2023-02-05T20:46:20.432Z,8.68
2023-02-05T20:51:15.122Z,8.43
2023-02-05T20:56:05.468Z,8.57
2023-02-05T21:00:56.415Z,8.44
2023-02-05T21:05:46.650Z,8.47
2023-02-05T21:10:40.780Z,8.46
2023-02-05T21:15:33.697Z,8.33
2023-02-05T21:20:31.875Z,8.34
2023-02-05T21:25:26.580Z,8.30
2023-02-05T21:30:25.594Z,8.24
2023-02-05T21:35:19.736Z,8.28
2023-02-05T21:40:14.842Z,8.10
2023-02-05T21:45:05.453Z,8.24
2023-02-05T21:49:58.687Z,8.14
2023-02-05T21:54:51.180Z,8.07
2023-02-05T21:59:44.532Z,8.10
2023-02-05T22:04:38.550Z,8.06
2023-02-05T22:09:32.722Z,8.20
2023-02-05T22:14:29.555Z,8.27
2023-02-05T22:19:28.610Z,8.25
2023-02-05T22:24:25.807Z,8.36
2023-02-05T22:29:20.380Z,8.32
2023-02-05T22:34:12.126Z,8.38
2023-02-05T22:39:04.142Z,8.39
2023-02-05T22:43:56.615Z,8.32
2023-02-05T22:48:51.681Z,8.32
2023-02-05T22:53:42.715Z,8.39
2023-02-05T22:58:35.397Z,8.30
2023-02-05T23:03:28.605Z,8.27
2023-02-05T23:08:23.675Z,8.15
2023-02-05T23:13:15.262Z,8.15
2023-02-05T23:18:07.910Z,8.10
2023-02-05T23:23:00.024Z,8.07
2023-02-05T23:27:52.758Z,8.07
2023-02-05T23:32:42.758Z,7.93
2023-02-05T23:37:32.869Z,8.01
2023-02-05T23:42:23.586Z,8.03
2023-02-05T23:47:17.939Z,8.05
2023-02-05T23:52:09.342Z,8.01
2023-02-05T23:57:01.561Z,8.06
